X  Schließen METAR Luftfahrt Wetterdaten        LFLS AVIGNON
Temperatur
20°C Temperatur
19°C Taupunkt
94% Feuchtigkeit



Wind
0 M/S
0 MPS
0 KM/S
0 KTS



Kein Wind
N
Aktuelle Wetterlage

Mostly Cloudy Meistens bewölkt
Luftdruck 1015 (hPa) - 29.96 (inHg)
Sichtweite 6 (Meile) - 10 (Km)
Flughafen
Flughafen Code LFLS

Position : AVIGNON
Entfernung: 165 (Km)

Metar:
METAR LFLS 160330Z AUTO 00000KT 9999 BKN076/// BKN110/// BKN130/// ///CB 20/19 Q1016 TEMPO SHRA BECMG FEW040

Zeit: 16-07-2024 05:30 CEST